Time;durP1;ratioP1;P1;durP2;ratioP2;P2;SDS_P1;SDS_P2;PMS_P1;PMS_P2;Temp;Humidity;BMP_temperature;BMP_pressure;BME280_temperature;BME280_humidity;BME280_pressure;Samples;Min_cycle;Max_cycle;Signal;HPM_P1;HPM_P2
2023/04/15 00:00:53;;;;;;;13.20;9.15;;;;;;;-144.73;100.00;54477.47;4995105;28;20036;-72
2023/04/15 00:03:18;;;;;;;13.23;8.32;;;;;;;-144.73;100.00;54469.28;5011285;28;20041;-72
2023/04/15 00:05:44;;;;;;;15.05;9.25;;;;;;;-144.73;100.00;54477.47;5010463;28;20041;-73
2023/04/15 00:08:09;;;;;;;16.00;10.10;;;;;;;-144.73;100.00;54477.47;5010873;28;20036;-72
2023/04/15 00:10:35;;;;;;;14.95;8.80;;;;;;;-144.73;100.00;54411.81;4994610;28;20045;-71
2023/04/15 00:13:00;;;;;;;15.40;8.68;;;;;;;-144.73;100.00;54489.81;5016571;28;20433;-72
2023/04/15 00:15:26;;;;;;;15.48;9.88;;;;;;;-144.73;100.00;54481.59;5014146;28;20037;-72
2023/04/15 00:17:51;;;;;;;14.27;9.50;;;;;;;-144.73;100.00;54493.91;5042657;28;20029;-72
2023/04/15 00:20:17;;;;;;;13.68;9.65;;;;;;;-144.73;100.00;54489.81;4995907;28;20031;-72
2023/04/15 00:22:42;;;;;;;15.20;9.52;;;;;;;-144.73;100.00;54477.47;5002850;28;20034;-72
2023/04/15 00:25:08;;;;;;;16.33;9.90;;;;;;;-144.73;100.00;54495.97;5018509;28;20046;-72
2023/04/15 00:27:33;;;;;;;17.10;10.38;;;;;;;-144.73;100.00;54473.38;5018151;28;20477;-72
2023/04/15 00:29:59;;;;;;;19.05;10.50;;;;;;;-144.73;100.00;54473.38;4996357;28;20033;-73
2023/04/15 00:32:24;;;;;;;18.25;11.55;;;;;;;-144.73;100.00;54477.47;4992616;28;20032;-73
2023/04/15 00:34:49;;;;;;;14.95;10.95;;;;;;;-144.73;100.00;54493.91;5017047;28;20056;-73
2023/04/15 00:37:15;;;;;;;17.75;12.07;;;;;;;-144.73;100.00;54477.47;5019804;28;20057;-74
2023/04/15 00:39:40;;;;;;;20.15;11.65;;;;;;;-144.73;100.00;54491.84;5019050;28;20061;-75
2023/04/15 00:42:06;;;;;;;18.88;13.20;;;;;;;-144.73;100.00;54493.91;4999407;28;20030;-76
2023/04/15 00:44:32;;;;;;;21.98;12.75;;;;;;;-144.73;100.00;54475.44;4997455;28;20076;-77
2023/04/15 00:47:01;;;;;;;16.98;12.18;;;;;;;-144.73;100.00;54463.13;4997434;28;20025;-77
2023/04/15 00:49:28;;;;;;;18.58;12.50;;;;;;;-144.73;100.00;54481.59;4990936;28;20030;-76
2023/04/15 00:51:53;;;;;;;20.33;13.35;;;;;;;-144.73;100.00;54469.28;5003992;28;20034;-76
2023/04/15 00:54:18;;;;;;;15.63;11.88;;;;;;;-144.73;100.00;54498.00;4992971;28;20105;-77
2023/04/15 00:56:44;;;;;;;20.23;12.70;;;;;;;-144.73;100.00;54498.00;5010269;28;20038;-76
2023/04/15 00:59:10;;;;;;;21.98;12.55;;;;;;;-144.73;100.00;54498.00;5019749;28;20096;-76
2023/04/15 01:01:35;;;;;;;19.98;13.02;;;;;;;-144.73;100.00;54456.97;5000183;28;20577;-77
2023/04/15 01:04:02;;;;;;;21.33;12.10;;;;;;;-144.73;100.00;54491.84;5020814;28;20018;-77
2023/04/15 01:06:28;;;;;;;21.33;12.75;;;;;;;-144.73;100.00;54493.91;5004849;28;20413;-78
2023/04/15 01:08:54;;;;;;;19.73;12.63;;;;;;;-144.73;100.00;54493.91;5022135;28;20014;-79
2023/04/15 01:11:21;;;;;;;22.35;13.90;;;;;;;-144.73;100.00;54469.28;5000531;28;20528;-79
2023/04/15 01:13:47;;;;;;;19.88;13.05;;;;;;;-144.73;100.00;54461.06;5013766;28;20025;-79
2023/04/15 01:16:13;;;;;;;21.58;14.40;;;;;;;-144.73;100.00;54512.38;4997246;28;20424;-79
2023/04/15 01:18:38;;;;;;;22.73;15.15;;;;;;;-144.73;100.00;54485.69;5019968;28;20048;-79
2023/04/15 01:21:05;;;;;;;28.35;14.00;;;;;;;-144.73;100.00;54428.22;4995137;28;20553;-79
2023/04/15 01:23:31;;;;;;;24.05;14.18;;;;;;;-144.73;100.00;54498.00;5003788;28;20021;-79
2023/04/15 01:25:58;;;;;;;19.77;13.50;;;;;;;-144.73;100.00;54440.53;4998272;28;20153;-78
2023/04/15 01:28:24;;;;;;;22.67;14.35;;;;;;;-144.73;100.00;54489.81;4996623;28;20033;-78
2023/04/15 01:31:04;;;;;;;22.92;14.23;;;;;;;-144.73;100.00;54463.13;4991020;28;20035;-78
2023/04/15 01:33:30;;;;;;;25.73;15.32;;;;;;;-144.73;100.00;54489.81;4992789;28;20026;-78
2023/04/15 01:35:56;;;;;;;25.23;15.80;;;;;;;-144.73;100.00;54518.53;4992357;28;20084;-76
2023/04/15 01:38:21;;;;;;;22.58;14.52;;;;;;;-144.73;100.00;54452.84;5022346;28;20025;-77
2023/04/15 01:40:46;;;;;;;25.23;14.07;;;;;;;-144.73;100.00;54506.22;5001084;28;20093;-77
2023/04/15 01:43:12;;;;;;;25.75;15.45;;;;;;;-144.73;100.00;54495.97;4996703;28;20029;-78
2023/04/15 01:45:37;;;;;;;28.27;15.68;;;;;;;-144.73;100.00;54465.16;5018096;28;20401;-78
2023/04/15 01:48:03;;;;;;;22.00;14.98;;;;;;;-144.73;100.00;54465.16;5001516;28;20028;-77
2023/04/15 01:50:28;;;;;;;25.00;16.75;;;;;;;-144.73;100.00;54514.44;5012898;28;20034;-77
2023/04/15 01:52:53;;;;;;;26.67;16.35;;;;;;;-144.73;100.00;54467.22;5007544;28;20041;-78
2023/04/15 01:55:19;;;;;;;28.05;15.52;;;;;;;-144.73;100.00;54493.91;5001221;28;20052;-78
2023/04/15 01:57:45;;;;;;;22.58;15.02;;;;;;;-144.73;100.00;54498.00;5006096;28;20031;-78
2023/04/15 02:00:11;;;;;;;26.77;16.73;;;;;;;-144.73;100.00;54514.44;4999650;28;20045;-78
2023/04/15 02:02:36;;;;;;;28.55;15.88;;;;;;;-144.73;100.00;54485.69;4995937;28;20025;-78
2023/04/15 02:05:03;;;;;;;27.17;16.67;;;;;;;-144.73;100.00;54465.16;4991702;28;20038;-78
2023/04/15 02:07:31;;;;;;;26.02;14.93;;;;;;;-144.73;100.00;54502.13;4995452;28;20097;-78
2023/04/15 02:09:56;;;;;;;27.48;16.00;;;;;;;-144.73;100.00;54463.13;5012996;28;20022;-78
2023/04/15 02:12:22;;;;;;;27.52;15.88;;;;;;;-144.73;100.00;54475.44;5001334;28;20077;-77
2023/04/15 02:14:47;;;;;;;31.60;18.45;;;;;;;-144.73;100.00;54456.97;5011341;28;20489;-78
2023/04/15 02:17:12;;;;;;;30.75;17.98;;;;;;;-144.73;100.00;54500.06;4994442;28;20038;-77
2023/04/15 02:19:39;;;;;;;34.00;20.52;;;;;;;-144.73;100.00;54512.38;4996714;28;20120;-78
2023/04/15 02:22:06;;;;;;;33.05;19.70;;;;;;;-144.73;100.00;54506.22;5005313;28;20029;-78
2023/04/15 02:24:32;;;;;;;35.47;17.88;;;;;;;-144.73;100.00;54481.59;5023108;28;20022;-78
2023/04/15 02:26:57;;;;;;;38.40;20.38;;;;;;;-144.73;100.00;54514.44;4999012;28;20030;-77
2023/04/15 02:29:23;;;;;;;35.45;19.52;;;;;;;-144.73;100.00;54498.00;5016257;28;20026;-77
2023/04/15 02:31:48;;;;;;;39.00;20.38;;;;;;;-144.73;100.00;54506.22;5018422;28;20049;-77
2023/04/15 02:34:14;;;;;;;34.20;20.75;;;;;;;-144.73;100.00;54481.59;4993980;28;20029;-77
2023/04/15 02:36:39;;;;;;;36.63;20.20;;;;;;;-144.73;100.00;54487.75;5004433;28;20063;-76
2023/04/15 02:39:05;;;;;;;37.05;19.63;;;;;;;-144.73;100.00;54461.06;5027993;28;20060;-76
2023/04/15 02:41:31;;;;;;;39.72;21.55;;;;;;;-144.73;100.00;54518.53;5010009;28;20176;-75
2023/04/15 02:43:56;;;;;;;35.35;19.60;;;;;;;-144.73;100.00;54489.81;5006278;28;20024;-76
2023/04/15 02:46:22;;;;;;;39.05;20.60;;;;;;;-144.73;100.00;54452.84;5021043;28;20103;-76
2023/04/15 02:48:48;;;;;;;37.90;19.85;;;;;;;-144.73;100.00;54539.06;5023341;28;20061;-76
2023/04/15 02:51:15;;;;;;;45.50;22.73;;;;;;;-144.73;100.00;54522.63;4996991;28;20049;-74
2023/04/15 02:53:41;;;;;;;45.85;22.85;;;;;;;-144.73;100.00;54504.16;4999286;28;20022;-75
2023/04/15 02:56:07;;;;;;;43.97;22.65;;;;;;;-144.73;100.00;54459.00;5004235;28;20158;-75
2023/04/15 02:58:34;;;;;;;45.67;22.35;;;;;;;-144.73;100.00;54522.63;5010898;28;20030;-75
2023/04/15 03:01:00;;;;;;;52.17;24.02;;;;;;;-144.73;100.00;54493.91;5011266;28;20104;-75
2023/04/15 03:03:26;;;;;;;49.55;24.08;;;;;;;-144.73;100.00;54530.84;4993737;28;20050;-76
2023/04/15 03:05:52;;;;;;;52.05;23.35;;;;;;;-144.73;100.00;54504.16;4989534;28;20038;-76
2023/04/15 03:08:17;;;;;;;55.65;26.13;;;;;;;-144.73;100.00;54547.28;5014841;28;20022;-75
2023/04/15 03:10:43;;;;;;;58.20;25.85;;;;;;;-144.73;100.00;54510.31;5002035;28;20064;-75
2023/04/15 03:13:08;;;;;;;48.17;23.75;;;;;;;-144.73;100.00;54489.81;5014419;28;20029;-75
2023/04/15 03:15:33;;;;;;;55.78;23.65;;;;;;;-144.73;100.00;54539.06;5023430;28;20087;-75
2023/04/15 03:17:59;;;;;;;64.18;26.42;;;;;;;-144.73;100.00;54498.00;5019944;28;20030;-75
2023/04/15 03:20:24;;;;;;;64.82;27.90;;;;;;;-144.73;100.00;54522.63;5004387;28;20033;-75
2023/04/15 03:22:50;;;;;;;55.33;26.65;;;;;;;-144.73;100.00;54522.63;4997270;28;20025;-75
2023/04/15 03:25:15;;;;;;;66.82;28.77;;;;;;;-144.73;100.00;54518.53;5000478;28;20042;-75
2023/04/15 03:27:40;;;;;;;67.55;29.33;;;;;;;-144.73;100.00;54522.63;5011837;28;20118;-74
2023/04/15 03:30:07;;;;;;;57.63;26.77;;;;;;;-144.73;100.00;54461.06;5021784;28;20030;-76
2023/04/15 03:32:33;;;;;;;70.35;29.02;;;;;;;-144.73;100.00;54516.47;5004391;28;20438;-74
2023/04/15 03:34:58;;;;;;;68.82;27.98;;;;;;;-144.73;100.00;54512.38;5009379;28;20112;-74
2023/04/15 03:37:24;;;;;;;72.18;29.55;;;;;;;-144.73;100.00;54498.00;5000989;28;20407;-75
2023/04/15 03:39:49;;;;;;;64.38;28.23;;;;;;;-144.73;100.00;54465.16;5000404;28;20116;-75
2023/04/15 03:42:15;;;;;;;63.58;27.52;;;;;;;-144.73;100.00;54498.00;4994839;28;20125;-76
2023/04/15 03:44:41;;;;;;;65.43;27.42;;;;;;;-144.73;100.00;54495.97;4996969;28;20033;-77
2023/04/15 03:47:06;;;;;;;73.20;30.38;;;;;;;-144.73;100.00;54473.38;4996083;28;20045;-78
2023/04/15 03:49:31;;;;;;;73.75;29.95;;;;;;;-144.73;100.00;54518.53;5006127;28;20029;-79
2023/04/15 03:51:57;;;;;;;74.82;33.15;;;;;;;-144.73;100.00;54510.31;5005192;28;20034;-80
2023/04/15 03:54:22;;;;;;;73.60;31.52;;;;;;;-144.73;100.00;54481.59;4995901;28;20054;-80
2023/04/15 03:56:48;;;;;;;79.53;32.17;;;;;;;-144.73;100.00;54504.16;5021451;28;20034;-81
2023/04/15 03:59:13;;;;;;;80.05;34.53;;;;;;;-144.73;100.00;54506.22;5012990;28;20033;-81
2023/04/15 04:01:38;;;;;;;78.38;31.38;;;;;;;-144.73;100.00;54518.53;5014896;28;20034;-81
2023/04/15 04:04:04;;;;;;;102.32;40.00;;;;;;;-144.73;100.00;54506.22;5025589;28;20017;-80
2023/04/15 04:06:29;;;;;;;86.28;35.80;;;;;;;-144.73;100.00;54514.44;5014242;28;20041;-80
2023/04/15 04:08:55;;;;;;;97.00;36.33;;;;;;;-144.73;100.00;54483.66;5015693;28;20100;-80
2023/04/15 04:11:20;;;;;;;88.20;35.83;;;;;;;-144.73;100.00;54539.06;5012603;28;20038;-81
2023/04/15 04:13:46;;;;;;;99.07;39.67;;;;;;;-144.73;100.00;54498.00;5009386;28;20041;-80
2023/04/15 04:16:11;;;;;;;99.13;38.75;;;;;;;-144.73;100.00;54481.59;5030028;28;20060;-80
2023/04/15 04:18:36;;;;;;;105.43;40.80;;;;;;;-144.73;100.00;54489.81;5015349;28;20053;-79
2023/04/15 04:21:02;;;;;;;110.63;39.42;;;;;;;-144.73;100.00;54489.81;5017325;28;20037;-78
2023/04/15 04:23:27;;;;;;;123.40;45.40;;;;;;;-144.73;100.00;54481.59;5016930;28;20030;-80
2023/04/15 04:25:53;;;;;;;117.68;42.15;;;;;;;-144.73;100.00;54518.53;5020756;28;20051;-79
2023/04/15 04:28:18;;;;;;;127.88;45.65;;;;;;;-144.73;100.00;54506.22;5031966;28;20017;-79
2023/04/15 04:30:44;;;;;;;134.25;43.97;;;;;;;-144.73;100.00;54530.84;5005127;28;20038;-79
2023/04/15 04:33:09;;;;;;;127.38;45.10;;;;;;;-144.73;100.00;54493.91;5006895;28;20033;-78
2023/04/15 04:35:36;;;;;;;125.05;45.47;;;;;;;-144.73;100.00;54530.84;5005693;28;20030;-79
2023/04/15 04:38:02;;;;;;;121.15;44.38;;;;;;;-144.73;100.00;54483.66;5020804;28;20021;-79
2023/04/15 04:40:28;;;;;;;153.32;54.55;;;;;;;-144.73;100.00;54477.47;5000694;28;20053;-79
2023/04/15 04:42:53;;;;;;;132.13;48.05;;;;;;;-144.73;100.00;54518.53;5016020;28;20018;-79
2023/04/15 04:45:19;;;;;;;143.55;47.85;;;;;;;-144.73;100.00;54522.63;5015351;28;20137;-79
2023/04/15 04:47:45;;;;;;;142.27;48.67;;;;;;;-144.73;100.00;54506.22;4996453;28;20060;-78
2023/04/15 04:50:11;;;;;;;155.45;51.85;;;;;;;-144.73;100.00;54510.31;5026513;28;20492;-78
2023/04/15 04:52:37;;;;;;;159.68;53.10;;;;;;;-144.73;100.00;54493.91;4998324;28;20078;-78
2023/04/15 04:55:02;;;;;;;170.00;55.47;;;;;;;-144.73;100.00;54518.53;5006519;28;20037;-78
2023/04/15 04:57:28;;;;;;;169.65;55.45;;;;;;;-144.73;100.00;54526.75;5002482;28;20072;-78
2023/04/15 04:59:53;;;;;;;186.63;57.72;;;;;;;-144.73;100.00;54551.38;5011343;28;20033;-79
2023/04/15 05:02:18;;;;;;;159.13;55.90;;;;;;;-144.73;100.00;54555.47;5009422;28;20026;-79
2023/04/15 05:04:44;;;;;;;177.60;60.85;;;;;;;-144.73;100.00;54502.13;5014674;28;20058;-79
2023/04/15 05:07:09;;;;;;;172.35;59.95;;;;;;;-144.73;100.00;54493.91;5000047;28;20083;-79
2023/04/15 05:09:35;;;;;;;179.68;57.97;;;;;;;-144.73;100.00;54473.38;5033830;28;20021;-80
2023/04/15 05:12:01;;;;;;;170.00;62.53;;;;;;;-144.73;100.00;54493.91;5028064;28;20037;-79
2023/04/15 05:14:27;;;;;;;181.40;61.42;;;;;;;-144.73;100.00;54493.91;5000461;28;20026;-79
2023/04/15 05:16:52;;;;;;;157.98;58.10;;;;;;;-144.73;100.00;54491.84;4997200;28;20042;-79
2023/04/15 05:19:17;;;;;;;163.10;60.03;;;;;;;-144.73;100.00;54500.06;5007895;28;20033;-79
2023/04/15 05:21:43;;;;;;;154.13;65.45;;;;;;;-144.73;100.00;54493.91;5010561;28;20034;-78
2023/04/15 05:24:08;;;;;;;153.88;58.92;;;;;;;-144.73;100.00;54489.81;5013963;28;20033;-77
2023/04/15 05:26:34;;;;;;;175.48;62.97;;;;;;;-144.73;100.00;54571.91;4999178;28;20402;-78
2023/04/15 05:28:59;;;;;;;154.68;60.58;;;;;;;-144.73;100.00;54506.22;5004837;28;20056;-78
2023/04/15 05:31:24;;;;;;;166.95;65.00;;;;;;;-144.73;100.00;54491.84;4993281;28;20178;-77
2023/04/15 05:33:50;;;;;;;166.93;62.65;;;;;;;-144.73;100.00;54510.31;4997650;28;20154;-77
2023/04/15 05:36:16;;;;;;;139.63;60.08;;;;;;;-144.73;100.00;54522.63;4995863;28;20079;-77
2023/04/15 05:38:41;;;;;;;138.63;57.60;;;;;;;-144.73;100.00;54502.13;5003614;28;20045;-77
2023/04/15 05:41:07;;;;;;;151.77;58.45;;;;;;;-144.73;100.00;54485.69;5006221;28;20038;-78
2023/04/15 05:43:32;;;;;;;168.70;61.78;;;;;;;-144.73;100.00;54539.06;4997203;28;20030;-77
2023/04/15 05:45:58;;;;;;;164.38;64.15;;;;;;;-144.73;100.00;54493.91;4993790;28;20180;-78
2023/04/15 05:48:23;;;;;;;163.48;62.35;;;;;;;-144.73;100.00;54506.22;5018217;28;20037;-77
2023/04/15 05:50:48;;;;;;;165.65;63.95;;;;;;;-144.73;100.00;54555.47;5000627;28;20500;-77
2023/04/15 05:53:14;;;;;;;153.27;59.08;;;;;;;-144.73;100.00;54502.13;5017404;28;20025;-77
2023/04/15 05:55:39;;;;;;;169.32;63.03;;;;;;;-144.73;100.00;54506.22;4999670;28;20073;-78
2023/04/15 05:58:05;;;;;;;137.32;56.83;;;;;;;-144.73;100.00;54545.22;4999905;28;20053;-76
2023/04/15 06:00:31;;;;;;;166.65;63.15;;;;;;;-144.73;100.00;54539.06;5008862;28;20042;-76
2023/04/15 06:02:57;;;;;;;159.98;61.67;;;;;;;-144.73;100.00;54485.69;4992143;28;20095;-76
2023/04/15 06:05:23;;;;;;;164.43;63.63;;;;;;;-144.73;100.00;54481.59;4994187;28;20089;-76
2023/04/15 06:07:49;;;;;;;173.32;68.35;;;;;;;-144.73;100.00;54498.00;4995770;28;20105;-76
2023/04/15 06:10:14;;;;;;;178.02;66.95;;;;;;;-144.73;100.00;54539.06;4998797;28;20050;-76
2023/04/15 06:12:40;;;;;;;184.10;67.50;;;;;;;-144.73;100.00;54502.13;5016459;28;20025;-76
2023/04/15 06:15:08;;;;;;;183.07;66.47;;;;;;;-144.73;100.00;54543.16;5002281;28;20038;-76
2023/04/15 06:17:34;;;;;;;189.32;66.40;;;;;;;-144.73;100.00;54512.38;5003229;28;20036;-75
2023/04/15 06:19:59;;;;;;;184.52;71.72;;;;;;;-144.73;100.00;54518.53;5001243;28;20030;-76
2023/04/15 06:22:25;;;;;;;190.50;69.25;;;;;;;-144.73;100.00;54547.28;5002689;28;20057;-76
2023/04/15 06:24:50;;;;;;;208.60;71.45;;;;;;;-144.73;100.00;54518.53;5006323;28;20033;-75
2023/04/15 06:27:16;;;;;;;195.73;70.90;;;;;;;-144.73;100.00;54483.66;5014752;28;20076;-75
2023/04/15 06:29:41;;;;;;;192.73;70.82;;;;;;;-144.73;100.00;54530.84;5016952;28;20034;-76
2023/04/15 06:32:07;;;;;;;192.88;69.82;;;;;;;-144.73;100.00;54543.16;5001106;28;20134;-76
2023/04/15 06:34:32;;;;;;;198.43;71.82;;;;;;;-144.73;100.00;54539.06;5019370;28;20109;-76
2023/04/15 06:36:58;;;;;;;204.13;71.40;;;;;;;-144.73;100.00;54522.63;5015523;28;20408;-76
2023/04/15 06:39:23;;;;;;;201.60;68.00;;;;;;;-144.73;100.00;54539.06;5005130;28;20036;-75
2023/04/15 06:41:49;;;;;;;190.60;67.07;;;;;;;-144.73;100.00;54522.63;4996373;28;20362;-75
2023/04/15 06:44:15;;;;;;;161.05;62.13;;;;;;;-144.73;100.00;54545.22;4995872;28;20041;-75
2023/04/15 06:46:40;;;;;;;168.48;67.15;;;;;;;-144.73;100.00;54510.31;5024622;28;20034;-75
2023/04/15 06:49:06;;;;;;;170.40;64.60;;;;;;;-144.73;100.00;54539.06;4999515;28;20035;-75
2023/04/15 06:51:31;;;;;;;161.63;62.63;;;;;;;-144.73;100.00;54510.31;5025078;28;20033;-75
2023/04/15 06:53:57;;;;;;;155.88;64.80;;;;;;;-144.73;100.00;54539.06;5001063;28;20153;-74
2023/04/15 06:56:22;;;;;;;155.30;65.93;;;;;;;-144.73;100.00;54514.44;5019124;28;20124;-77
2023/04/15 06:58:48;;;;;;;157.90;66.10;;;;;;;-144.73;100.00;54477.47;5024473;28;20026;-75
2023/04/15 07:01:13;;;;;;;133.65;61.45;;;;;;;-144.73;100.00;54567.81;5023104;28;20176;-75
2023/04/15 07:03:38;;;;;;;131.43;59.83;;;;;;;-144.73;100.00;54506.22;5019322;28;20092;-75
2023/04/15 07:06:05;;;;;;;120.38;61.38;;;;;;;-144.73;100.00;54539.06;5010980;28;20045;-75
2023/04/15 07:08:32;;;;;;;119.22;59.00;;;;;;;-144.73;100.00;54477.47;5000221;28;20011;-75
2023/04/15 07:10:59;;;;;;;119.93;56.88;;;;;;;-144.73;100.00;54514.44;5005685;28;20029;-74
2023/04/15 07:13:24;;;;;;;128.10;62.60;;;;;;;-144.73;100.00;54498.00;4998904;28;20386;-75
2023/04/15 07:15:50;;;;;;;136.45;62.42;;;;;;;-144.73;100.00;54539.06;5025831;28;20087;-74
2023/04/15 07:18:15;;;;;;;130.43;61.22;;;;;;;-144.73;100.00;54518.53;5031389;28;20025;-75
2023/04/15 07:20:42;;;;;;;121.18;58.42;;;;;;;-144.73;100.00;54571.91;5014114;28;20040;-69
2023/04/15 07:23:07;;;;;;;122.28;55.70;;;;;;;-144.73;100.00;54555.47;5003647;28;20111;-70
2023/04/15 07:25:33;;;;;;;116.15;57.40;;;;;;;-144.73;100.00;54514.44;5015385;28;20110;-70
2023/04/15 07:27:58;;;;;;;135.13;60.90;;;;;;;-144.73;100.00;54539.06;4998390;28;20030;-69
2023/04/15 07:30:24;;;;;;;127.40;58.95;;;;;;;-144.73;100.00;54520.59;4991552;28;20035;-69
2023/04/15 07:32:49;;;;;;;117.32;55.67;;;;;;;-144.73;100.00;54493.91;4995466;28;20029;-70
2023/04/15 07:35:14;;;;;;;125.47;60.88;;;;;;;-144.73;100.00;54506.22;4994551;28;20034;-69
2023/04/15 07:37:42;;;;;;;115.95;55.03;;;;;;;-144.73;100.00;54522.63;4998150;28;20029;-69
2023/04/15 07:40:08;;;;;;;119.70;55.60;;;;;;;-144.73;100.00;54526.75;5018227;28;20034;-70
2023/04/15 07:42:34;;;;;;;126.60;59.58;;;;;;;-144.73;100.00;54522.63;5005096;28;20029;-70
2023/04/15 07:45:00;;;;;;;115.38;57.72;;;;;;;-144.73;100.00;54530.84;5018283;28;20022;-70
2023/04/15 07:47:26;;;;;;;132.98;58.97;;;;;;;-144.73;100.00;54506.22;5003310;28;20160;-70
2023/04/15 07:49:51;;;;;;;126.03;60.42;;;;;;;-144.73;100.00;54489.81;4999678;28;20473;-70
2023/04/15 07:52:17;;;;;;;118.35;56.80;;;;;;;-144.73;100.00;54514.44;5016688;28;20064;-70
2023/04/15 07:54:42;;;;;;;133.02;60.70;;;;;;;-144.73;100.00;54555.47;4998000;28;20021;-70
2023/04/15 07:57:08;;;;;;;126.07;58.92;;;;;;;-144.73;100.00;54539.06;5004463;28;20030;-70
2023/04/15 07:59:33;;;;;;;125.68;59.05;;;;;;;-144.73;100.00;54543.16;5016176;28;20053;-70
2023/04/15 08:01:59;;;;;;;117.18;59.40;;;;;;;-144.73;100.00;54498.00;5004485;28;20034;-70
2023/04/15 08:04:25;;;;;;;124.55;55.78;;;;;;;-144.73;100.00;54551.38;5000389;28;20034;-70
2023/04/15 08:06:51;;;;;;;135.98;58.90;;;;;;;-144.73;100.00;54526.75;4999621;28;20033;-70
2023/04/15 08:09:16;;;;;;;122.97;55.38;;;;;;;-144.73;100.00;54518.53;5000374;28;20044;-70
2023/04/15 08:11:42;;;;;;;117.63;55.05;;;;;;;-144.73;100.00;54539.06;5017854;28;20037;-70
2023/04/15 08:14:08;;;;;;;121.03;59.20;;;;;;;-144.73;100.00;54500.06;5000610;28;20034;-70
2023/04/15 08:16:34;;;;;;;129.02;61.58;;;;;;;-144.73;100.00;54495.97;5020398;28;20482;-70
2023/04/15 08:18:59;;;;;;;116.75;55.58;;;;;;;-144.73;100.00;54526.75;5029868;28;20061;-70
2023/04/15 08:21:24;;;;;;;112.70;55.22;;;;;;;-144.73;100.00;54506.22;5015619;28;20152;-70
2023/04/15 08:23:51;;;;;;;110.78;54.47;;;;;;;-144.73;100.00;54498.00;5002264;28;20495;-69
2023/04/15 08:26:17;;;;;;;117.45;57.60;;;;;;;-144.73;100.00;54530.84;4990944;28;20034;-72
2023/04/15 08:28:44;;;;;;;117.43;58.67;;;;;;;-144.73;100.00;54559.59;5026961;28;20507;-71
2023/04/15 08:31:09;;;;;;;117.05;54.72;;;;;;;-144.73;100.00;54514.44;4997920;28;20460;-70
2023/04/15 08:33:35;;;;;;;123.93;59.05;;;;;;;-144.73;100.00;54522.63;4990752;28;20062;-70
2023/04/15 08:36:01;;;;;;;116.38;57.47;;;;;;;-144.73;100.00;54514.44;5010252;28;20083;-71
2023/04/15 08:38:26;;;;;;;108.82;56.03;;;;;;;-144.73;100.00;54539.06;5011056;28;20097;-71
2023/04/15 08:40:51;;;;;;;108.63;56.17;;;;;;;-144.73;100.00;54522.63;5011321;28;20421;-70
2023/04/15 08:43:25;;;;;;;104.50;54.50;;;;;;;-144.73;100.00;54502.13;4998915;28;20053;-70
2023/04/15 08:45:51;;;;;;;114.03;54.88;;;;;;;-144.73;100.00;54530.84;4990200;28;20042;-70
2023/04/15 08:48:18;;;;;;;105.15;52.90;;;;;;;-144.73;100.00;54514.44;4991738;28;20038;-70
2023/04/15 08:50:44;;;;;;;116.10;55.65;;;;;;;-144.73;100.00;54498.00;5030816;28;20037;-71
2023/04/15 08:53:10;;;;;;;116.97;58.20;;;;;;;-144.73;100.00;54469.28;5031161;28;20033;-71
2023/04/15 08:55:45;;;;;;;133.52;60.72;;;;;;;-144.73;100.00;54547.28;5013037;28;20087;-70
2023/04/15 08:58:15;;;;;;;113.50;53.92;;;;;;;-144.73;100.00;54508.28;5013594;28;20112;-70
2023/04/15 09:00:41;;;;;;;116.88;57.67;;;;;;;-144.73;100.00;54510.31;5009572;28;20038;-72
2023/04/15 09:03:08;;;;;;;113.30;60.40;;;;;;;-144.73;100.00;54500.06;4994103;28;20026;-71
2023/04/15 09:05:37;;;;;;;116.50;57.58;;;;;;;-144.73;100.00;54508.28;4993573;28;20044;-70
2023/04/15 09:08:04;;;;;;;114.90;57.10;;;;;;;-144.73;100.00;54498.00;4993647;28;20022;-70
2023/04/15 09:10:30;;;;;;;108.30;53.28;;;;;;;-144.73;100.00;54539.06;4993244;28;20073;-71
2023/04/15 09:12:56;;;;;;;107.00;53.25;;;;;;;-144.73;100.00;54489.81;4993616;28;20025;-70
2023/04/15 09:15:24;;;;;;;113.18;56.72;;;;;;;-144.73;100.00;54514.44;5010843;28;20034;-70
2023/04/15 09:17:49;;;;;;;110.18;54.58;;;;;;;-144.73;100.00;54555.47;5011402;28;20068;-70
2023/04/15 09:20:17;;;;;;;97.90;55.60;;;;;;;-144.73;100.00;54526.75;5010484;28;20069;-70
2023/04/15 09:22:45;;;;;;;104.00;53.50;;;;;;;-144.73;100.00;54530.84;4993763;28;20036;-70
2023/04/15 09:25:26;;;;;;;106.72;53.20;;;;;;;-144.73;100.00;54522.63;5010743;28;20056;-70
2023/04/15 09:27:57;;;;;;;101.78;53.63;;;;;;;-144.73;100.00;54508.28;5011571;28;20116;-71
2023/04/15 09:30:23;;;;;;;89.00;48.40;;;;;;;-144.73;100.00;54489.81;5009076;28;20119;-71
2023/04/15 09:32:58;;;;;;;93.90;49.03;;;;;;;-144.73;100.00;54547.28;4993349;28;20373;-70
2023/04/15 09:35:25;;;;;;;84.32;46.65;;;;;;;-144.73;100.00;54508.28;4993186;28;20065;-70
2023/04/15 09:37:51;;;;;;;96.78;48.30;;;;;;;-144.73;100.00;54502.13;5010616;28;20087;-70
2023/04/15 09:40:40;;;;;;;85.63;45.85;;;;;;;-144.73;100.00;54522.63;4995844;28;20030;-70
2023/04/15 09:43:08;;;;;;;84.03;44.45;;;;;;;-144.73;100.00;54495.97;4997587;28;20033;-70
2023/04/15 09:45:35;;;;;;;71.85;43.15;;;;;;;-144.73;100.00;54508.28;5014189;28;20037;-70
2023/04/15 09:48:21;;;;;;;66.68;38.53;;;;;;;-144.73;100.00;54510.31;4997324;28;20029;-70
2023/04/15 09:50:48;;;;;;;68.32;37.88;;;;;;;-144.73;100.00;54465.16;5014092;28;20386;-71
2023/04/15 09:53:21;;;;;;;69.75;38.70;;;;;;;-144.73;100.00;54485.69;4997893;28;20129;-71
2023/04/15 09:55:50;;;;;;;72.25;39.30;;;;;;;-144.73;100.00;54516.47;4996596;28;20116;-70
2023/04/15 09:58:29;;;;;;;65.10;36.90;;;;;;;-144.73;100.00;54539.06;4996550;28;20042;-71
2023/04/15 10:00:57;;;;;;;51.25;31.42;;;;;;;-144.73;100.00;54526.75;4997206;28;20374;-71
2023/04/15 10:03:27;;;;;;;50.15;29.77;;;;;;;-144.73;100.00;54514.44;5014920;28;20030;-72
2023/04/15 10:05:55;;;;;;;55.88;29.55;;;;;;;-144.73;100.00;54432.31;5014104;28;20026;-72
2023/04/15 10:08:23;;;;;;;55.25;31.13;;;;;;;-144.73;100.00;54510.31;5014442;28;20034;-71
2023/04/15 10:10:51;;;;;;;46.22;28.05;;;;;;;-144.73;100.00;54522.63;4996688;28;20156;-72
2023/04/15 10:13:18;;;;;;;49.10;25.65;;;;;;;-144.73;100.00;54491.84;5014578;28;20022;-72
2023/04/15 10:15:46;;;;;;;44.40;26.92;;;;;;;-144.73;100.00;54481.59;4995816;28;20068;-71
2023/04/15 10:18:15;;;;;;;42.10;26.45;;;;;;;-144.73;100.00;54539.06;4997187;28;20066;-71
2023/04/15 10:20:41;;;;;;;48.58;30.48;;;;;;;-144.73;100.00;54522.63;4997666;28;20050;-72
2023/04/15 10:23:08;;;;;;;48.90;30.88;;;;;;;-144.73;100.00;54485.69;5014294;28;20022;-72
2023/04/15 10:25:34;;;;;;;49.17;28.95;;;;;;;-144.73;100.00;54485.69;5014232;28;20038;-73
2023/04/15 10:27:59;;;;;;;49.78;27.17;;;;;;;-144.73;100.00;54514.44;5014804;28;20161;-72
2023/04/15 10:30:25;;;;;;;46.08;26.92;;;;;;;-144.73;100.00;54487.75;4997026;28;20038;-72
2023/04/15 10:32:51;;;;;;;42.00;25.80;;;;;;;-144.73;100.00;54522.63;4997224;28;20025;-72
2023/04/15 10:35:18;;;;;;;34.70;22.85;;;;;;;-144.73;100.00;54498.00;5014379;28;20044;-72
2023/04/15 10:37:43;;;;;;;35.53;21.90;;;;;;;-144.73;100.00;54465.16;4997194;28;20050;-72
2023/04/15 10:40:30;;;;;;;37.63;24.60;;;;;;;-144.73;100.00;54473.38;5014349;28;20046;-73
2023/04/15 10:43:02;;;;;;;33.85;23.00;;;;;;;-144.73;100.00;54456.97;5014799;28;20029;-73
2023/04/15 10:45:32;;;;;;;38.35;24.75;;;;;;;-144.73;100.00;54477.47;4995813;28;20045;-73